createdAt,value
2023-02-24T00:00:19.922Z,1009.82
2023-02-24T00:00:53.679Z,1009.82
2023-02-24T00:01:51.679Z,1009.92
2023-02-24T00:02:23.367Z,1009.92
2023-02-24T00:02:54.140Z,1009.92
2023-02-24T00:03:25.251Z,1009.72
2023-02-24T00:03:55.509Z,1009.72
2023-02-24T00:04:27.512Z,1009.72
2023-02-24T00:04:57.545Z,1009.72
2023-02-24T00:05:30.245Z,1009.92
2023-02-24T00:06:00.624Z,1009.92
2023-02-24T00:06:31.387Z,1009.72
2023-02-24T00:07:01.569Z,1009.72
2023-02-24T00:07:33.237Z,1009.72
2023-02-24T00:08:03.508Z,1009.92
2023-02-24T00:08:35.482Z,1009.92
2023-02-24T00:09:05.786Z,1009.92
2023-02-24T00:09:37.362Z,1009.92
2023-02-24T00:10:07.743Z,1009.72
2023-02-24T00:10:39.908Z,1009.72
2023-02-24T00:11:10.486Z,1009.82
2023-02-24T00:11:41.201Z,1009.82
2023-02-24T00:12:11.523Z,1009.82
2023-02-24T00:12:43.204Z,1009.82
2023-02-24T00:13:13.539Z,1009.72
2023-02-24T00:13:45.314Z,1009.72
2023-02-24T00:14:15.479Z,1009.51
2023-02-24T00:14:47.596Z,1009.51
2023-02-24T00:15:17.719Z,1009.82
2023-02-24T00:15:50.273Z,1009.82
2023-02-24T00:16:20.610Z,1009.72
2023-02-24T00:16:51.302Z,1009.72
2023-02-24T00:17:21.535Z,1009.72
2023-02-24T00:17:53.171Z,1009.72
2023-02-24T00:18:23.521Z,1009.82
2023-02-24T00:18:55.855Z,1009.82
2023-02-24T00:19:25.758Z,1009.62
2023-02-24T00:19:57.183Z,1009.62
2023-02-24T00:20:30.963Z,1009.72
2023-02-24T00:20:59.241Z,1009.72
2023-02-24T00:21:30.481Z,1009.72
2023-02-24T00:22:01.240Z,1009.72
2023-02-24T00:22:31.511Z,1009.82
2023-02-24T00:23:03.565Z,1009.72
2023-02-24T00:23:33.489Z,1009.72
2023-02-24T00:24:05.374Z,1009.72
2023-02-24T00:24:35.513Z,1009.72
2023-02-24T00:25:07.313Z,1009.72
2023-02-24T00:25:38.776Z,1009.72
2023-02-24T00:26:09.210Z,1009.62
2023-02-24T00:26:40.447Z,1009.62
2023-02-24T00:27:11.293Z,1009.51
2023-02-24T00:27:41.456Z,1009.51
2023-02-24T00:28:13.222Z,1009.51
2023-02-24T00:28:43.595Z,1009.51
2023-02-24T00:29:15.186Z,1009.41
2023-02-24T00:29:46.288Z,1009.41
2023-02-24T00:30:19.194Z,1009.62
2023-02-24T00:30:47.749Z,1009.62
2023-02-24T00:31:20.100Z,1009.62
2023-02-24T00:31:50.744Z,1009.62
2023-02-24T00:32:21.936Z,1009.62
2023-02-24T00:32:52.048Z,1009.62
2023-02-24T00:33:23.154Z,1009.41
2023-02-24T00:33:54.546Z,1009.41
2023-02-24T00:34:25.269Z,1009.62
2023-02-24T00:34:55.569Z,1009.62
2023-02-24T00:35:27.627Z,1009.72
2023-02-24T00:35:57.616Z,1009.72
2023-02-24T00:36:29.357Z,1009.62
2023-02-24T00:37:00.516Z,1009.62
2023-02-24T00:37:31.308Z,1009.62
2023-02-24T00:38:01.506Z,1009.62
2023-02-24T00:38:33.309Z,1009.51
2023-02-24T00:39:03.544Z,1009.62
2023-02-24T00:39:35.273Z,1009.62
2023-02-24T00:40:06.458Z,1009.51
2023-02-24T00:40:40.352Z,1009.51
2023-02-24T00:41:07.603Z,1009.31
2023-02-24T00:41:38.788Z,1009.31
2023-02-24T00:42:11.500Z,1009.51
2023-02-24T00:42:40.515Z,1009.51
2023-02-24T00:43:12.344Z,1009.41
2023-02-24T00:43:43.264Z,1009.41
2023-02-24T00:44:13.474Z,1009.51
2023-02-24T00:44:45.552Z,1009.51
2023-02-24T00:45:16.373Z,1009.51
2023-02-24T00:45:48.383Z,1009.51
2023-02-24T00:46:17.766Z,1009.62
2023-02-24T00:46:49.409Z,1009.62
2023-02-24T00:47:20.655Z,1009.62
2023-02-24T00:47:51.175Z,1009.62
2023-02-24T00:48:21.914Z,1009.31
2023-02-24T00:48:53.510Z,1009.31
2023-02-24T00:49:23.582Z,1009.51
2023-02-24T00:49:55.313Z,1009.51
2023-02-24T00:50:26.348Z,1009.41
2023-02-24T00:50:57.507Z,1009.41
2023-02-24T00:51:27.549Z,1009.41
2023-02-24T00:51:59.399Z,1009.41
2023-02-24T00:52:31.262Z,1009.21
2023-02-24T00:53:01.310Z,1009.21
2023-02-24T00:53:31.480Z,1009.41
2023-02-24T00:54:03.642Z,1009.31
2023-02-24T00:54:33.500Z,1009.31
2023-02-24T00:55:06.870Z,1009.51
2023-02-24T00:55:35.531Z,1009.51
2023-02-24T00:56:06.493Z,1009.21
2023-02-24T00:56:38.631Z,1009.21
2023-02-24T00:57:09.175Z,1009.41
2023-02-24T00:57:40.786Z,1009.41
2023-02-24T00:58:11.228Z,1009.41
2023-02-24T00:58:41.518Z,1009.41
2023-02-24T00:59:13.926Z,1009.41
2023-02-24T00:59:43.549Z,1009.41
2023-02-24T01:00:16.035Z,1009.31
2023-02-24T01:00:48.437Z,1009.31
2023-02-24T01:01:17.524Z,1009.51
2023-02-24T01:01:47.788Z,1009.51
2023-02-24T01:02:19.193Z,1009.51
2023-02-24T01:02:50.477Z,1009.51
2023-02-24T01:03:21.528Z,1009.51
2023-02-24T01:03:51.517Z,1009.51
2023-02-24T01:04:23.187Z,1009.62
2023-02-24T01:04:53.490Z,1009.62
2023-02-24T01:05:25.562Z,1009.41
2023-02-24T01:05:55.486Z,1009.41
2023-02-24T01:06:27.187Z,1009.31
2023-02-24T01:06:57.503Z,1009.31
2023-02-24T01:07:29.215Z,1009.21
2023-02-24T01:08:00.797Z,1009.21
2023-02-24T01:08:31.522Z,1009.31
2023-02-24T01:09:01.526Z,1009.31
2023-02-24T01:09:33.212Z,1009.31
2023-02-24T01:10:05.431Z,1009.51
2023-02-24T01:10:35.703Z,1009.51
2023-02-24T01:11:05.817Z,1009.51
2023-02-24T01:11:37.422Z,1009.51
2023-02-24T01:12:09.454Z,1009.41
2023-02-24T01:12:40.088Z,1009.41
2023-02-24T01:13:10.532Z,1009.21
2023-02-24T01:13:41.233Z,1009.21
2023-02-24T01:14:11.546Z,1009.21
2023-02-24T01:14:43.350Z,1009.21
2023-02-24T01:15:14.818Z,1009.21
2023-02-24T01:15:45.244Z,1009.21
2023-02-24T01:16:17.680Z,1009.41
2023-02-24T01:16:47.489Z,1009.41
2023-02-24T01:17:17.626Z,1009.41
2023-02-24T01:17:49.312Z,1009.41
2023-02-24T01:18:20.492Z,1009.41
2023-02-24T01:18:51.175Z,1009.41
2023-02-24T01:19:21.488Z,1009.21
2023-02-24T01:19:53.376Z,1009.21
2023-02-24T01:20:23.907Z,1009.11
2023-02-24T01:20:55.301Z,1009.11
2023-02-24T01:21:25.797Z,1009.31
2023-02-24T01:21:57.405Z,1009.31
2023-02-24T01:22:27.512Z,1009.41
2023-02-24T01:22:59.305Z,1009.41
2023-02-24T01:23:30.459Z,1009.21
2023-02-24T01:24:01.276Z,1009.21
2023-02-24T01:24:31.481Z,1009.31
2023-02-24T01:25:03.870Z,1009.11
2023-02-24T01:25:33.507Z,1009.11
2023-02-24T01:26:05.923Z,1009.21
2023-02-24T01:26:35.536Z,1009.21
2023-02-24T01:27:07.300Z,1009.31
2023-02-24T01:27:37.538Z,1009.31
2023-02-24T01:28:09.334Z,1009.31
2023-02-24T01:28:40.582Z,1009.31
2023-02-24T01:29:12.694Z,1009.21
2023-02-24T01:29:41.584Z,1009.21
2023-02-24T01:30:17.477Z,1009.04
2023-02-24T01:30:43.541Z,1009.04
2023-02-24T01:31:14.724Z,1009.11
2023-02-24T01:31:48.800Z,1009.11
2023-02-24T01:32:16.631Z,1009.04
2023-02-24T01:32:49.105Z,1009.04
2023-02-24T01:33:18.533Z,1009.04
2023-02-24T01:33:51.181Z,1009.04
2023-02-24T01:34:20.824Z,1009.11
2023-02-24T01:34:52.483Z,1009.11
2023-02-24T01:35:22.980Z,1009.04
2023-02-24T01:35:54.163Z,1009.04
2023-02-24T01:36:24.484Z,1009.04
2023-02-24T01:36:56.254Z,1009.04
2023-02-24T01:37:26.707Z,1008.84
2023-02-24T01:37:58.585Z,1008.84
2023-02-24T01:38:28.513Z,1008.84
2023-02-24T01:39:01.699Z,1008.84
2023-02-24T01:39:30.479Z,1008.94
2023-02-24T01:40:02.554Z,1008.94
2023-02-24T01:40:35.897Z,1009.11
2023-02-24T01:41:04.238Z,1009.04
2023-02-24T01:41:34.484Z,1009.04
2023-02-24T01:42:06.475Z,1008.94
2023-02-24T01:42:36.502Z,1008.94
2023-02-24T01:43:08.196Z,1008.94
2023-02-24T01:43:38.828Z,1008.94
2023-02-24T01:44:11.200Z,1009.11
2023-02-24T01:44:40.477Z,1009.11
2023-02-24T01:45:13.136Z,1008.84
2023-02-24T01:45:42.541Z,1008.84
2023-02-24T01:46:14.799Z,1008.94
2023-02-24T01:46:44.567Z,1008.94
2023-02-24T01:47:16.265Z,1008.84
2023-02-24T01:47:46.672Z,1008.84
2023-02-24T01:48:18.218Z,1009.04
2023-02-24T01:48:48.593Z,1009.04
2023-02-24T01:49:21.230Z,1008.84
2023-02-24T01:49:50.492Z,1008.84
2023-02-24T01:50:22.987Z,1008.74
2023-02-24T01:50:52.543Z,1008.74
2023-02-24T01:51:24.170Z,1008.94
2023-02-24T01:51:54.475Z,1008.94
2023-02-24T01:52:26.768Z,1009.04
2023-02-24T01:52:56.487Z,1009.04
2023-02-24T01:53:28.259Z,1009.11
2023-02-24T01:53:58.561Z,1009.11
2023-02-24T01:54:31.349Z,1008.94
2023-02-24T01:55:00.499Z,1008.94
2023-02-24T01:55:32.684Z,1008.84
2023-02-24T01:56:02.531Z,1009.04
2023-02-24T01:56:33.482Z,1009.04
2023-02-24T01:57:05.361Z,1009.04
2023-02-24T01:57:35.589Z,1009.04
2023-02-24T01:58:07.639Z,1009.11
2023-02-24T01:58:37.620Z,1009.11
2023-02-24T01:59:09.211Z,1008.94
2023-02-24T01:59:40.855Z,1008.94
2023-02-24T02:00:12.174Z,1008.94
2023-02-24T02:00:49.138Z,1008.94
2023-02-24T02:01:13.337Z,1008.74
2023-02-24T02:01:43.628Z,1008.74
2023-02-24T02:02:15.354Z,1009.11
2023-02-24T02:02:45.932Z,1009.11
2023-02-24T02:03:17.400Z,1009.04
2023-02-24T02:03:48.219Z,1009.04
2023-02-24T02:04:19.194Z,1008.94
2023-02-24T02:04:50.549Z,1008.94
2023-02-24T02:05:21.650Z,1008.74
2023-02-24T02:05:51.531Z,1008.74
2023-02-24T02:06:23.420Z,1008.74
2023-02-24T02:06:53.520Z,1008.74
2023-02-24T02:07:25.184Z,1008.84
2023-02-24T02:07:55.507Z,1008.84
2023-02-24T02:08:27.178Z,1008.84
2023-02-24T02:08:57.510Z,1008.84
2023-02-24T02:09:29.165Z,1008.94
2023-02-24T02:10:00.614Z,1008.94
2023-02-24T02:10:31.766Z,1008.63
2023-02-24T02:11:01.508Z,1008.63
2023-02-24T02:11:33.388Z,1008.74
2023-02-24T02:12:03.486Z,1008.74
2023-02-24T02:12:36.006Z,1008.74
2023-02-24T02:13:05.765Z,1008.63
2023-02-24T02:13:37.364Z,1008.63
2023-02-24T02:14:07.516Z,1008.74
2023-02-24T02:14:39.397Z,1008.74
2023-02-24T02:15:11.325Z,1008.63
2023-02-24T02:15:41.399Z,1008.63
2023-02-24T02:16:11.549Z,1008.63
2023-02-24T02:16:43.155Z,1008.63
2023-02-24T02:17:13.922Z,1008.63
2023-02-24T02:17:45.455Z,1008.63
2023-02-24T02:18:15.470Z,1008.63
2023-02-24T02:18:47.655Z,1008.63
2023-02-24T02:19:17.592Z,1008.63
2023-02-24T02:19:50.150Z,1008.63
2023-02-24T02:20:21.213Z,1008.43
2023-02-24T02:20:51.516Z,1008.43
2023-02-24T02:21:21.882Z,1008.63
2023-02-24T02:21:53.172Z,1008.63
2023-02-24T02:22:23.489Z,1008.53
2023-02-24T02:22:55.193Z,1008.53
2023-02-24T02:23:25.776Z,1008.53
2023-02-24T02:23:57.557Z,1008.53
2023-02-24T02:24:27.503Z,1008.63
2023-02-24T02:24:59.144Z,1008.63
2023-02-24T02:25:30.966Z,1008.63
2023-02-24T02:26:01.612Z,1008.63
2023-02-24T02:26:31.473Z,1008.63
2023-02-24T02:27:03.561Z,1008.74
2023-02-24T02:27:33.471Z,1008.74
2023-02-24T02:28:05.247Z,1008.43
2023-02-24T02:28:35.638Z,1008.43
2023-02-24T02:29:07.230Z,1008.53
2023-02-24T02:29:37.609Z,1008.53
2023-02-24T02:30:10.582Z,1008.74
2023-02-24T02:30:40.572Z,1008.74
2023-02-24T02:31:11.341Z,1008.74
2023-02-24T02:31:41.691Z,1008.74
2023-02-24T02:32:13.395Z,1008.63
2023-02-24T02:32:43.659Z,1008.63
2023-02-24T02:33:15.175Z,1008.74
2023-02-24T02:33:46.258Z,1008.74
2023-02-24T02:34:17.514Z,1008.43
2023-02-24T02:34:47.758Z,1008.43
2023-02-24T02:35:19.628Z,1008.53
2023-02-24T02:35:50.457Z,1008.53
2023-02-24T02:36:21.266Z,1008.63
2023-02-24T02:36:51.461Z,1008.63
2023-02-24T02:37:23.614Z,1008.74
2023-02-24T02:37:53.519Z,1008.74
2023-02-24T02:38:25.217Z,1008.63
2023-02-24T02:38:55.476Z,1008.63
2023-02-24T02:39:27.279Z,1008.53
2023-02-24T02:39:57.547Z,1008.53
2023-02-24T02:40:36.171Z,1008.43
2023-02-24T02:41:00.473Z,1008.43
2023-02-24T02:41:31.188Z,1008.53
2023-02-24T02:42:01.544Z,1008.53
2023-02-24T02:42:33.173Z,1008.43
2023-02-24T02:43:03.549Z,1008.63
2023-02-24T02:43:35.158Z,1008.63
2023-02-24T02:44:13.789Z,1008.53
2023-02-24T02:44:37.645Z,1008.53
2023-02-24T02:45:08.615Z,1008.63
2023-02-24T02:45:39.351Z,1008.63
2023-02-24T02:46:10.536Z,1008.63
2023-02-24T02:46:41.187Z,1008.63
2023-02-24T02:47:11.495Z,1008.53
2023-02-24T02:47:43.366Z,1008.53
2023-02-24T02:48:13.896Z,1008.74
2023-02-24T02:48:45.158Z,1008.74
2023-02-24T02:49:15.490Z,1008.63
2023-02-24T02:49:47.229Z,1008.63
2023-02-24T02:50:18.099Z,1008.63
2023-02-24T02:50:49.518Z,1008.63
2023-02-24T02:51:20.740Z,1008.53
2023-02-24T02:51:51.320Z,1008.53
2023-02-24T02:52:21.478Z,1008.63
2023-02-24T02:52:53.168Z,1008.63
2023-02-24T02:53:23.589Z,1008.63
2023-02-24T02:53:55.178Z,1008.63
2023-02-24T02:54:33.854Z,1008.84
2023-02-24T02:54:57.206Z,1008.84
2023-02-24T02:55:27.996Z,1008.53
2023-02-24T02:55:59.241Z,1008.53
2023-02-24T02:56:30.581Z,1008.63
2023-02-24T02:57:00.645Z,1008.63
2023-02-24T02:57:32.503Z,1008.63
2023-02-24T02:58:02.586Z,1008.53
2023-02-24T02:58:35.093Z,1008.53
2023-02-24T02:59:04.502Z,1008.63
2023-02-24T02:59:36.195Z,1008.63
2023-02-24T03:00:09.717Z,1008.53
2023-02-24T03:00:51.106Z,1008.53
2023-02-24T03:01:08.770Z,1008.63
2023-02-24T03:01:41.468Z,1008.63
2023-02-24T03:02:10.525Z,1008.63
2023-02-24T03:02:42.177Z,1008.63
2023-02-24T03:03:12.511Z,1008.53
2023-02-24T03:03:44.585Z,1008.53
2023-02-24T03:04:15.317Z,1008.43
2023-02-24T03:04:46.788Z,1008.43
2023-02-24T03:05:16.963Z,1008.53
2023-02-24T03:05:48.669Z,1008.53
2023-02-24T03:06:18.496Z,1008.53
2023-02-24T03:06:51.628Z,1008.53
2023-02-24T03:07:20.454Z,1008.43
2023-02-24T03:07:52.158Z,1008.43
2023-02-24T03:08:22.610Z,1008.43
2023-02-24T03:08:54.149Z,1008.43
2023-02-24T03:09:24.456Z,1008.63
2023-02-24T03:09:56.284Z,1008.63
2023-02-24T03:10:26.934Z,1008.43
2023-02-24T03:10:58.455Z,1008.43
2023-02-24T03:11:28.467Z,1008.23
2023-02-24T03:12:01.315Z,1008.23
2023-02-24T03:12:30.414Z,1008.43
2023-02-24T03:13:02.173Z,1008.43
2023-02-24T03:13:32.462Z,1008.43
2023-02-24T03:14:04.277Z,1008.43
2023-02-24T03:14:34.435Z,1008.43
2023-02-24T03:15:07.327Z,1008.43
2023-02-24T03:15:36.529Z,1008.43
2023-02-24T03:16:08.138Z,1008.53
2023-02-24T03:16:38.516Z,1008.53
2023-02-24T03:17:11.299Z,1008.43
2023-02-24T03:17:41.037Z,1008.43
2023-02-24T03:18:12.191Z,1008.53
2023-02-24T03:18:42.497Z,1008.53
2023-02-24T03:19:14.160Z,1008.43
2023-02-24T03:19:44.533Z,1008.43
2023-02-24T03:20:17.781Z,1008.43
2023-02-24T03:20:46.469Z,1008.43
2023-02-24T03:21:18.236Z,1008.53
2023-02-24T03:21:48.778Z,1008.53
2023-02-24T03:22:21.159Z,1008.43
2023-02-24T03:22:50.423Z,1008.43
2023-02-24T03:23:22.171Z,1008.43
2023-02-24T03:23:52.432Z,1008.43
2023-02-24T03:24:24.602Z,1008.23
2023-02-24T03:24:54.469Z,1008.23
2023-02-24T03:25:26.925Z,1008.43
2023-02-24T03:25:56.660Z,1008.43
2023-02-24T03:26:28.500Z,1008.43
2023-02-24T03:26:58.617Z,1008.43
2023-02-24T03:27:31.478Z,1008.33
2023-02-24T03:28:00.467Z,1008.33
2023-02-24T03:28:31.497Z,1008.43
2023-02-24T03:29:03.257Z,1008.43
2023-02-24T03:29:33.462Z,1008.43
2023-02-24T03:30:06.334Z,1008.33
2023-02-24T03:30:35.572Z,1008.33
2023-02-24T03:31:07.847Z,1008.23
2023-02-24T03:31:37.547Z,1008.23
2023-02-24T03:32:09.430Z,1008.33
2023-02-24T03:32:40.590Z,1008.33
2023-02-24T03:33:11.141Z,1008.23
2023-02-24T03:33:41.476Z,1008.23
2023-02-24T03:34:13.136Z,1008.33
2023-02-24T03:34:43.451Z,1008.33
2023-02-24T03:35:15.703Z,1008.43
2023-02-24T03:35:45.767Z,1008.43
2023-02-24T03:36:17.313Z,1008.23
2023-02-24T03:36:47.610Z,1008.23
2023-02-24T03:37:19.352Z,1008.33
2023-02-24T03:37:50.584Z,1008.33
2023-02-24T03:38:21.259Z,1008.33
2023-02-24T03:38:51.462Z,1008.33
2023-02-24T03:39:23.372Z,1008.43
2023-02-24T03:39:53.487Z,1008.43
2023-02-24T03:40:26.847Z,1008.33
2023-02-24T03:40:55.596Z,1008.33
2023-02-24T03:41:27.377Z,1008.43
2023-02-24T03:41:57.776Z,1008.43
2023-02-24T03:42:29.177Z,1008.23
2023-02-24T03:43:00.468Z,1008.23
2023-02-24T03:43:31.538Z,1008.23
2023-02-24T03:44:01.487Z,1008.23
2023-02-24T03:44:33.605Z,1008.23
2023-02-24T03:45:03.510Z,1008.23
2023-02-24T03:45:36.612Z,1008.23
2023-02-24T03:46:05.804Z,1008.33
2023-02-24T03:46:37.390Z,1008.33
2023-02-24T03:47:07.498Z,1008.43
2023-02-24T03:47:39.166Z,1008.43
2023-02-24T03:48:10.468Z,1008.13
2023-02-24T03:48:41.187Z,1008.13
2023-02-24T03:49:11.435Z,1008.13
2023-02-24T03:49:43.651Z,1008.13
2023-02-24T03:50:13.988Z,1008.13
2023-02-24T03:50:45.131Z,1008.13
2023-02-24T03:51:16.076Z,1008.23
2023-02-24T03:51:47.209Z,1008.23
2023-02-24T03:52:17.665Z,1008.43
2023-02-24T03:52:49.248Z,1008.43
2023-02-24T03:53:20.424Z,1008.23
2023-02-24T03:53:51.146Z,1008.23
2023-02-24T03:54:21.491Z,1008.23
2023-02-24T03:54:53.152Z,1008.23
2023-02-24T03:55:24.202Z,1008.02
2023-02-24T03:55:55.188Z,1008.02
2023-02-24T03:56:25.990Z,1008.13
2023-02-24T03:56:56.496Z,1008.13
2023-02-24T03:57:28.171Z,1008.23
2023-02-24T03:57:58.917Z,1008.23
2023-02-24T03:58:31.131Z,1008.02
2023-02-24T03:59:00.919Z,1008.02
2023-02-24T03:59:32.103Z,1008.13
2023-02-24T04:00:02.788Z,1008.13
2023-02-24T04:00:36.063Z,1008.13
2023-02-24T04:01:04.578Z,1008.23
2023-02-24T04:01:36.331Z,1008.23
2023-02-24T04:02:06.799Z,1008.23
2023-02-24T04:02:38.192Z,1008.23
2023-02-24T04:03:08.543Z,1008.02
2023-02-24T04:03:41.183Z,1008.02
2023-02-24T04:04:10.584Z,1008.33
2023-02-24T04:04:42.738Z,1008.33
2023-02-24T04:05:12.933Z,1008.13
2023-02-24T04:05:44.401Z,1008.13
2023-02-24T04:06:14.608Z,1008.13
2023-02-24T04:06:46.802Z,1008.13
2023-02-24T04:07:16.578Z,1008.13
2023-02-24T04:07:48.220Z,1008.13
2023-02-24T04:08:18.809Z,1008.02
2023-02-24T04:08:51.284Z,1008.02
2023-02-24T04:09:20.623Z,1008.02
2023-02-24T04:09:52.329Z,1008.02
2023-02-24T04:10:23.129Z,1007.82
2023-02-24T04:10:54.484Z,1007.82
2023-02-24T04:11:24.635Z,1008.02
2023-02-24T04:11:56.485Z,1008.02
2023-02-24T04:12:26.582Z,1008.13
2023-02-24T04:12:58.319Z,1008.13
2023-02-24T04:13:28.585Z,1008.13
2023-02-24T04:14:01.745Z,1008.13
2023-02-24T04:14:30.501Z,1008.02
2023-02-24T04:15:02.356Z,1008.02
2023-02-24T04:15:33.721Z,1008.23
2023-02-24T04:16:04.242Z,1008.13
2023-02-24T04:16:34.492Z,1008.13
2023-02-24T04:17:06.589Z,1008.02
2023-02-24T04:17:36.664Z,1008.02
2023-02-24T04:18:09.186Z,1008.23
2023-02-24T04:18:40.840Z,1008.23
2023-02-24T04:19:11.193Z,1008.02
2023-02-24T04:19:40.612Z,1008.02
2023-02-24T04:20:12.574Z,1008.23
2023-02-24T04:20:45.581Z,1008.23
2023-02-24T04:21:14.250Z,1008.02
2023-02-24T04:21:44.567Z,1008.02
2023-02-24T04:22:16.352Z,1008.13
2023-02-24T04:22:46.563Z,1008.13
2023-02-24T04:23:18.256Z,1008.13
2023-02-24T04:23:48.496Z,1008.13
2023-02-24T04:24:21.238Z,1007.92
2023-02-24T04:24:50.533Z,1007.92
2023-02-24T04:25:22.941Z,1008.13
2023-02-24T04:25:52.528Z,1008.13
2023-02-24T04:26:24.261Z,1007.92
2023-02-24T04:26:54.489Z,1007.92
2023-02-24T04:27:26.717Z,1008.02
2023-02-24T04:27:56.499Z,1008.02
2023-02-24T04:28:28.179Z,1008.02
2023-02-24T04:28:59.169Z,1008.02
2023-02-24T04:29:31.136Z,1008.13
2023-02-24T04:30:00.463Z,1008.13
2023-02-24T04:30:33.165Z,1008.02
2023-02-24T04:31:02.840Z,1008.13
2023-02-24T04:31:34.852Z,1008.13
2023-02-24T04:32:04.613Z,1007.92
2023-02-24T04:32:36.277Z,1007.92
2023-02-24T04:33:06.479Z,1007.82
2023-02-24T04:33:38.260Z,1007.82
2023-02-24T04:34:08.629Z,1007.92
2023-02-24T04:34:41.127Z,1007.92
2023-02-24T04:35:11.100Z,1008.02
2023-02-24T04:35:42.133Z,1008.02
2023-02-24T04:36:12.424Z,1007.82
2023-02-24T04:36:44.147Z,1007.82
2023-02-24T04:37:14.446Z,1007.92
2023-02-24T04:37:46.467Z,1007.92
2023-02-24T04:38:16.631Z,1007.72
2023-02-24T04:38:48.202Z,1007.72
2023-02-24T04:39:18.438Z,1007.92
2023-02-24T04:39:51.161Z,1007.92
2023-02-24T04:40:20.928Z,1007.82
2023-02-24T04:40:52.160Z,1007.82
2023-02-24T04:41:22.741Z,1007.72
2023-02-24T04:41:54.180Z,1007.72
2023-02-24T04:42:24.762Z,1007.72
2023-02-24T04:42:56.110Z,1007.72
2023-02-24T04:43:26.459Z,1007.92
2023-02-24T04:43:58.444Z,1007.92
2023-02-24T04:44:28.506Z,1008.02
2023-02-24T04:45:01.689Z,1008.02
2023-02-24T04:45:31.316Z,1007.72
2023-02-24T04:46:02.262Z,1007.72
2023-02-24T04:46:32.628Z,1007.62
2023-02-24T04:47:04.160Z,1007.82
2023-02-24T04:47:34.442Z,1007.82
2023-02-24T04:48:06.485Z,1007.62
2023-02-24T04:48:36.434Z,1007.62
2023-02-24T04:49:08.189Z,1007.82
2023-02-24T04:49:38.480Z,1007.82
2023-02-24T04:50:11.601Z,1007.42
2023-02-24T04:50:40.458Z,1007.42
2023-02-24T04:51:12.164Z,1007.52
2023-02-24T04:51:42.446Z,1007.52
2023-02-24T04:52:14.126Z,1007.82
2023-02-24T04:52:44.459Z,1007.82
2023-02-24T04:53:16.183Z,1007.72
2023-02-24T04:53:46.463Z,1007.72
2023-02-24T04:54:18.258Z,1007.62
2023-02-24T04:54:48.445Z,1007.62
2023-02-24T04:55:21.606Z,1007.62
2023-02-24T04:55:50.861Z,1007.62
2023-02-24T04:56:21.461Z,1007.72
2023-02-24T04:56:52.458Z,1007.72
2023-02-24T04:57:24.252Z,1007.82
2023-02-24T04:57:54.458Z,1007.82
2023-02-24T04:58:26.809Z,1008.02
2023-02-24T04:58:56.455Z,1008.02
2023-02-24T04:59:28.165Z,1007.72
2023-02-24T04:59:58.478Z,1007.72
2023-02-24T05:00:32.066Z,1008.02
2023-02-24T05:01:00.603Z,1008.02
2023-02-24T05:01:32.157Z,1007.72
2023-02-24T05:02:02.623Z,1007.62
2023-02-24T05:02:34.724Z,1007.62
2023-02-24T05:03:04.536Z,1007.62
2023-02-24T05:03:36.712Z,1007.62
2023-02-24T05:04:06.634Z,1007.62
2023-02-24T05:04:38.292Z,1007.62
2023-02-24T05:05:09.541Z,1007.72
2023-02-24T05:05:41.161Z,1007.72
2023-02-24T05:06:10.451Z,1007.42
2023-02-24T05:06:42.173Z,1007.42
2023-02-24T05:07:12.567Z,1007.82
2023-02-24T05:07:44.143Z,1007.82
2023-02-24T05:08:14.646Z,1007.52
2023-02-24T05:08:46.626Z,1007.52
2023-02-24T05:09:17.077Z,1007.72
2023-02-24T05:09:48.256Z,1007.72
2023-02-24T05:10:18.931Z,1007.52
2023-02-24T05:10:51.301Z,1007.52
2023-02-24T05:11:21.000Z,1007.52
2023-02-24T05:11:53.223Z,1007.52
2023-02-24T05:12:22.554Z,1007.72
2023-02-24T05:12:54.161Z,1007.72
2023-02-24T05:13:24.602Z,1007.62
2023-02-24T05:13:56.186Z,1007.62
2023-02-24T05:14:26.560Z,1007.62
2023-02-24T05:14:58.886Z,1007.62
2023-02-24T05:15:29.557Z,1007.42
2023-02-24T05:16:01.322Z,1007.42
2023-02-24T05:16:30.644Z,1007.52
2023-02-24T05:17:02.375Z,1007.52
2023-02-24T05:17:32.622Z,1007.62
2023-02-24T05:18:04.400Z,1007.52
2023-02-24T05:18:34.673Z,1007.52
2023-02-24T05:19:06.755Z,1007.52
2023-02-24T05:19:36.582Z,1007.52
2023-02-24T05:20:08.853Z,1007.42
2023-02-24T05:20:38.525Z,1007.42
2023-02-24T05:21:11.977Z,1007.62
2023-02-24T05:21:40.536Z,1007.62
2023-02-24T05:22:11.512Z,1007.42
2023-02-24T05:22:44.124Z,1007.42
2023-02-24T05:23:13.513Z,1007.31
2023-02-24T05:23:45.372Z,1007.31
2023-02-24T05:24:15.491Z,1007.31
2023-02-24T05:24:47.471Z,1007.31
2023-02-24T05:25:18.633Z,1007.31
2023-02-24T05:25:49.230Z,1007.31
2023-02-24T05:26:20.512Z,1007.01
2023-02-24T05:26:51.233Z,1007.01
2023-02-24T05:27:21.566Z,1007.01
2023-02-24T05:27:53.324Z,1007.01
2023-02-24T05:28:23.529Z,1007.11
2023-02-24T05:28:55.292Z,1007.11
2023-02-24T05:29:26.128Z,1007.11
2023-02-24T05:29:57.387Z,1007.11
2023-02-24T05:30:28.611Z,1007.11
2023-02-24T05:30:59.653Z,1007.11
2023-02-24T05:31:30.539Z,1007.01
2023-02-24T05:32:01.778Z,1007.01
2023-02-24T05:32:31.622Z,1007.42
2023-02-24T05:33:03.347Z,1007.31
2023-02-24T05:33:33.523Z,1007.31
2023-02-24T05:34:05.370Z,1007.31
2023-02-24T05:34:35.517Z,1007.31
2023-02-24T05:35:07.947Z,1007.42
2023-02-24T05:35:37.635Z,1007.42
2023-02-24T05:36:09.223Z,1007.42
2023-02-24T05:36:40.476Z,1007.42
2023-02-24T05:37:11.142Z,1007.31
2023-02-24T05:37:41.455Z,1007.31
2023-02-24T05:38:13.479Z,1007.31
2023-02-24T05:38:43.452Z,1007.31
2023-02-24T05:39:15.228Z,1007.11
2023-02-24T05:39:45.728Z,1007.11
2023-02-24T05:40:18.173Z,1007.31
2023-02-24T05:40:47.508Z,1007.31
2023-02-24T05:41:19.797Z,1007.21
2023-02-24T05:41:50.434Z,1007.21
2023-02-24T05:42:21.150Z,1007.42
2023-02-24T05:42:52.058Z,1007.42
2023-02-24T05:43:23.189Z,1007.11
2023-02-24T05:43:53.457Z,1007.11
2023-02-24T05:44:25.126Z,1007.21
2023-02-24T05:44:55.469Z,1007.21
2023-02-24T05:45:28.596Z,1007.21
2023-02-24T05:45:57.832Z,1007.21
2023-02-24T05:46:29.223Z,1007.21
2023-02-24T05:47:00.586Z,1007.21
2023-02-24T05:47:31.113Z,1007.11
2023-02-24T05:48:01.459Z,1007.11
2023-02-24T05:48:33.111Z,1007.31
2023-02-24T05:49:03.448Z,1007.21
2023-02-24T05:49:35.230Z,1007.21
2023-02-24T05:50:06.386Z,1007.01
2023-02-24T05:50:37.819Z,1007.01
2023-02-24T05:51:07.432Z,1007.11
2023-02-24T05:51:39.332Z,1007.11
2023-02-24T05:52:11.089Z,1007.21
2023-02-24T05:52:41.345Z,1007.21
2023-02-24T05:53:11.423Z,1007.11
2023-02-24T05:53:43.153Z,1007.11
2023-02-24T05:54:13.451Z,1007.21
2023-02-24T05:54:45.381Z,1007.21
2023-02-24T05:55:15.850Z,1007.42
2023-02-24T05:55:47.158Z,1007.42
2023-02-24T05:56:18.163Z,1007.01
2023-02-24T05:56:48.451Z,1007.01
2023-02-24T05:57:21.299Z,1007.21
2023-02-24T05:57:50.432Z,1007.21
2023-02-24T05:58:22.404Z,1007.11
2023-02-24T05:58:54.686Z,1007.11
2023-02-24T05:59:24.415Z,1007.11
2023-02-24T05:59:54.388Z,1007.11
2023-02-24T06:00:28.085Z,1007.21
2023-02-24T06:00:56.500Z,1007.21
2023-02-24T06:01:28.480Z,1006.94
2023-02-24T06:01:58.472Z,1006.94
2023-02-24T06:02:31.242Z,1007.01
2023-02-24T06:03:01.320Z,1007.01
2023-02-24T06:03:32.419Z,1007.31
2023-02-24T06:04:02.528Z,1007.21
2023-02-24T06:04:34.244Z,1007.21
2023-02-24T06:05:05.792Z,1007.01
2023-02-24T06:05:37.745Z,1007.01
2023-02-24T06:06:06.408Z,1007.01
2023-02-24T06:06:40.067Z,1007.01
2023-02-24T06:07:08.622Z,1007.31
2023-02-24T06:07:43.255Z,1007.31
2023-02-24T06:08:10.608Z,1007.01
2023-02-24T06:08:42.550Z,1007.01
2023-02-24T06:09:14.699Z,1007.11
2023-02-24T06:09:44.307Z,1007.11
2023-02-24T06:10:14.926Z,1006.84
2023-02-24T06:10:47.497Z,1006.84
2023-02-24T06:11:16.766Z,1006.94
2023-02-24T06:11:48.480Z,1006.94
2023-02-24T06:12:18.678Z,1007.01
2023-02-24T06:12:51.299Z,1007.01
2023-02-24T06:13:20.602Z,1007.01
2023-02-24T06:13:52.496Z,1007.01
2023-02-24T06:14:22.570Z,1006.94
2023-02-24T06:14:54.223Z,1006.94
2023-02-24T06:15:25.322Z,1007.01